Time;durP1;ratioP1;P1;durP2;ratioP2;P2;SDS_P1;SDS_P2;PMS_P1;PMS_P2;Temp;Humidity;BMP_temperature;BMP_pressure;BME280_temperature;BME280_humidity;BME280_pressure;Samples;Min_cycle;Max_cycle;Signal;HPM_P1;HPM_P2
2023/06/04 00:01:14;;;;;;;4.30;2.40;;;;;;;11.95;58.65;99821.75;78314;1298;3026759;-70
2023/06/04 00:03:41;;;;;;;5.50;2.70;;;;;;;11.92;58.82;99825.06;79561;1295;3013652;-68
2023/06/04 00:06:07;;;;;;;5.80;3.30;;;;;;;11.88;59.08;99822.66;79662;1295;3011639;-72
2023/06/04 00:08:35;;;;;;;9.20;3.70;;;;;;;11.90;59.08;99821.69;78575;1292;3026488;-63
2023/06/04 00:11:01;;;;;;;9.80;3.60;;;;;;;11.82;59.61;99822.71;79751;1292;3018427;-68
2023/06/04 00:13:28;;;;;;;7.00;3.50;;;;;;;11.83;59.35;99825.61;79762;1292;3011838;-65
2023/06/04 00:15:56;;;;;;;7.80;3.70;;;;;;;11.82;59.58;99824.44;78493;1297;3026325;-65
2023/06/04 00:18:23;;;;;;;5.00;2.90;;;;;;;11.76;60.06;99824.30;79724;1295;3013085;-68
2023/06/04 00:20:49;;;;;;;10.30;3.40;;;;;;;11.76;60.22;99828.70;79741;1295;3011725;-71
2023/06/04 00:23:17;;;;;;;5.10;3.10;;;;;;;11.71;60.11;99828.60;78493;1295;3025495;-70
2023/06/04 00:25:43;;;;;;;7.20;3.10;;;;;;;11.68;60.29;99831.41;79674;1292;3012950;-69
2023/06/04 00:28:10;;;;;;;6.10;3.20;;;;;;;11.60;60.82;99832.80;79723;1292;3011888;-67
2023/06/04 00:30:38;;;;;;;5.70;2.40;;;;;;;11.61;60.68;99826.55;78491;1292;3025594;-75
2023/06/04 00:33:05;;;;;;;4.10;2.70;;;;;;;11.61;60.57;99831.14;79802;1295;3012831;-65
2023/06/04 00:35:32;;;;;;;5.10;2.50;;;;;;;11.56;60.82;99834.42;79828;1292;3012767;-67
2023/06/04 00:38:00;;;;;;;6.00;2.40;;;;;;;11.54;60.83;99832.78;78606;1291;3025964;-67
2023/06/04 00:40:27;;;;;;;4.90;2.60;;;;;;;11.50;60.98;99832.65;79753;1292;3012714;-68
2023/06/04 00:42:55;;;;;;;3.00;2.10;;;;;;;11.51;60.96;99839.30;79746;1293;3011631;-66
2023/06/04 00:45:25;;;;;;;4.40;2.20;;;;;;;11.51;61.07;99840.00;78522;1292;3052537;-68
2023/06/04 00:47:52;;;;;;;4.20;2.30;;;;;;;11.50;61.05;99837.42;79862;1292;3011621;-69
2023/06/04 00:50:20;;;;;;;7.10;2.80;;;;;;;11.50;60.96;99840.06;79703;1292;3011693;-71
2023/06/04 00:52:49;;;;;;;7.10;3.30;;;;;;;11.41;61.36;99841.10;78479;1295;3057617;-68
2023/06/04 00:55:18;;;;;;;3.90;2.60;;;;;;;11.40;61.30;99843.27;79762;1292;3012727;-67
2023/06/04 00:57:47;;;;;;;3.70;2.00;;;;;;;11.30;61.72;99845.55;79139;1297;3013145;-70
2023/06/04 01:00:14;;;;;;;6.10;2.70;;;;;;;11.33;61.43;99847.85;79788;1295;3013260;-70
2023/06/04 01:02:42;;;;;;;4.90;2.80;;;;;;;11.35;61.52;99852.50;79707;1297;3011486;-65
2023/06/04 01:05:17;;;;;;;4.30;2.50;;;;;;;11.29;62.00;99853.71;78454;1297;3069019;-71
2023/06/04 01:07:49;;;;;;;3.60;2.10;;;;;;;11.29;61.94;99852.28;78514;1295;3051270;-70
2023/06/04 01:10:16;;;;;;;2.90;1.50;;;;;;;11.25;62.10;99857.11;79715;1293;3012826;-67
2023/06/04 01:12:43;;;;;;;2.20;1.10;;;;;;;11.24;62.30;99854.70;79715;1292;3011658;-69
2023/06/04 01:15:11;;;;;;;4.40;1.50;;;;;;;11.19;62.32;99855.81;78540;1295;3027703;-72
2023/06/04 01:17:42;;;;;;;2.70;1.00;;;;;;;11.19;62.52;99857.40;79790;1294;3015682;-72
2023/06/04 01:20:17;;;;;;;5.20;1.70;;;;;;;11.10;62.95;99859.00;78414;1296;3068579;-69
2023/06/04 01:22:59;;;;;;;7.30;1.50;;;;;;;11.07;63.23;99860.38;79267;1292;3011563;-68
2023/06/04 01:25:38;;;;;;;;;;;;;;;11.04;63.17;99860.34;78467;1298;3052677;-70
2023/06/04 01:28:11;;;;;;;3.10;0.80;;;;;;;10.97;63.36;99864.61;78484;1292;3055922;-66
2023/06/04 01:30:42;;;;;;;2.30;0.80;;;;;;;10.90;63.78;99868.67;79636;1292;3012076;-66
2023/06/04 01:33:11;;;;;;;2.40;0.90;;;;;;;10.81;64.18;99866.73;78404;1295;3052420;-70
2023/06/04 01:35:38;;;;;;;2.00;1.00;;;;;;;10.79;64.07;99871.02;79667;1292;3013466;-70
2023/06/04 01:38:04;;;;;;;2.50;1.30;;;;;;;10.76;64.14;99864.89;79660;1291;3011732;-73
2023/06/04 01:40:33;;;;;;;2.90;1.20;;;;;;;10.68;64.54;99865.66;78416;1293;3069614;-67
2023/06/04 01:42:59;;;;;;;2.40;1.10;;;;;;;10.70;64.40;99867.31;79538;1292;3015518;-69
2023/06/04 01:45:26;;;;;;;2.50;1.00;;;;;;;10.65;64.52;99867.77;79511;1291;3011472;-68
2023/06/04 01:47:55;;;;;;;2.50;1.00;;;;;;;10.59;64.80;99869.66;78282;1298;3053267;-67
2023/06/04 01:50:21;;;;;;;6.20;1.30;;;;;;;10.49;65.09;99868.99;79476;1297;3012634;-67
2023/06/04 01:52:48;;;;;;;3.80;1.50;;;;;;;10.60;64.56;99871.00;79502;1297;3011937;-75
2023/06/04 01:55:16;;;;;;;8.00;1.30;;;;;;;10.62;64.41;99871.09;78274;1292;3026435;-70
2023/06/04 01:57:50;;;;;;;5.10;1.00;;;;;;;10.54;64.79;99874.16;79455;1292;3019150;-69
2023/06/04 02:00:18;;;;;;;8.30;1.70;;;;;;;10.48;65.08;99871.65;78289;1292;3048937;-71
2023/06/04 02:02:48;;;;;;;2.90;1.70;;;;;;;10.53;64.78;99870.69;79575;1293;3013307;-68
2023/06/04 02:05:17;;;;;;;2.60;1.30;;;;;;;10.49;64.98;99877.71;79250;1295;3011784;-66
2023/06/04 02:07:45;;;;;;;3.30;1.30;;;;;;;10.51;64.77;99879.72;79693;1291;3021237;-69
2023/06/04 02:10:16;;;;;;;7.20;1.20;;;;;;;10.59;64.58;99880.36;79284;1291;3011651;-66
2023/06/04 02:13:02;;;;;;;2.80;1.00;;;;;;;10.59;64.27;99885.45;79660;1292;3014772;-69
2023/06/04 02:15:31;;;;;;;2.60;1.30;;;;;;;10.66;63.97;99889.80;78522;1296;3056211;-65
2023/06/04 02:17:59;;;;;;;3.90;1.50;;;;;;;10.68;64.01;99896.54;79778;1292;3014818;-68
2023/06/04 02:20:27;;;;;;;2.60;1.20;;;;;;;10.63;64.45;99897.48;79785;1292;3013394;-67
2023/06/04 02:22:55;;;;;;;3.60;1.20;;;;;;;10.71;64.08;99896.18;78556;1295;3052309;-67
2023/06/04 02:25:22;;;;;;;2.20;1.20;;;;;;;10.72;64.16;99901.88;79856;1295;3013494;-69
2023/06/04 02:27:49;;;;;;;3.00;1.40;;;;;;;10.68;64.14;99903.15;79830;1292;3011595;-68
2023/06/04 02:30:17;;;;;;;3.50;1.40;;;;;;;10.74;63.64;99901.62;78497;1292;3056474;-67
2023/06/04 02:32:50;;;;;;;3.20;1.30;;;;;;;10.72;63.78;99903.65;79702;1292;3011516;-67
2023/06/04 02:35:18;;;;;;;3.70;1.20;;;;;;;10.71;63.79;99903.68;78496;1292;3052911;-71
2023/06/04 02:37:45;;;;;;;2.90;1.30;;;;;;;10.74;63.47;99911.24;79754;1291;3013548;-64
2023/06/04 02:40:13;;;;;;;5.20;1.30;;;;;;;10.74;63.46;99914.23;79764;1295;3011807;-71
2023/06/04 02:42:41;;;;;;;2.20;1.30;;;;;;;10.74;63.41;99915.96;78460;1291;3069090;-66
2023/06/04 02:45:08;;;;;;;3.90;1.40;;;;;;;10.77;63.27;99915.82;79718;1292;3012926;-68
2023/06/04 02:47:34;;;;;;;3.20;1.30;;;;;;;10.72;63.38;99916.77;79725;1298;3011885;-68
2023/06/04 02:50:03;;;;;;;2.60;1.30;;;;;;;10.67;63.58;99919.16;78513;1298;3027357;-71
2023/06/04 02:52:30;;;;;;;2.40;1.60;;;;;;;10.70;63.51;99920.91;79919;1294;3013039;-69
2023/06/04 02:54:57;;;;;;;3.60;1.60;;;;;;;10.70;63.23;99926.52;79690;1298;3011481;-67
2023/06/04 02:57:25;;;;;;;7.70;1.90;;;;;;;10.83;62.58;99926.17;78587;1292;3069750;-68
2023/06/04 02:59:55;;;;;;;4.10;1.60;;;;;;;10.86;62.63;99928.84;79825;1292;3012930;-72
2023/06/04 03:02:24;;;;;;;3.80;1.50;;;;;;;10.90;62.53;99931.23;79181;1292;3011826;-70
2023/06/04 03:04:54;;;;;;;4.90;1.70;;;;;;;10.94;62.47;99931.20;79896;1292;3013251;-68
2023/06/04 03:07:22;;;;;;;3.60;1.70;;;;;;;10.92;62.76;99930.45;78552;1293;3049815;-68
2023/06/04 03:09:49;;;;;;;4.70;1.70;;;;;;;10.91;63.03;99935.40;79856;1292;3019316;-71
2023/06/04 03:12:16;;;;;;;2.90;1.80;;;;;;;10.98;62.49;99938.54;79823;1291;3011898;-67
2023/06/04 03:14:44;;;;;;;3.40;1.80;;;;;;;11.01;62.32;99931.50;78530;1292;3028053;-66
2023/06/04 03:17:10;;;;;;;2.90;1.80;;;;;;;10.94;62.25;99941.90;79791;1292;3013041;-73
2023/06/04 03:19:37;;;;;;;8.00;2.10;;;;;;;10.96;62.53;99944.61;79721;1294;3013464;-70
2023/06/04 03:22:05;;;;;;;6.10;2.10;;;;;;;11.01;62.39;99939.61;78524;1292;3026083;-70
2023/06/04 03:24:42;;;;;;;4.70;1.80;;;;;;;11.00;61.84;99941.05;79761;1295;3012897;-73
2023/06/04 03:27:10;;;;;;;4.90;2.30;;;;;;;10.96;62.04;99940.57;78464;1291;3069747;-71
2023/06/04 03:29:40;;;;;;;5.10;2.40;;;;;;;11.00;61.95;99940.36;79810;1291;3011846;-65
2023/06/04 03:32:10;;;;;;;4.60;2.50;;;;;;;11.01;61.99;99947.81;79224;1291;3011763;-69
2023/06/04 03:34:37;;;;;;;5.00;2.20;;;;;;;11.08;61.93;99952.16;79900;1292;3013768;-68
2023/06/04 03:37:04;;;;;;;9.00;2.00;;;;;;;11.11;61.63;99959.89;79755;1290;3011678;-69
2023/06/04 03:39:32;;;;;;;7.10;2.30;;;;;;;11.16;61.71;99957.34;78608;1294;3054205;-68
2023/06/04 03:42:00;;;;;;;5.70;2.50;;;;;;;11.18;61.52;99958.09;79840;1291;3013563;-72
2023/06/04 03:44:28;;;;;;;6.10;2.10;;;;;;;11.23;61.49;99955.55;79771;1292;3011606;-72
2023/06/04 03:47:00;;;;;;;5.20;2.20;;;;;;;11.32;61.19;99956.46;78607;1292;3055598;-70
2023/06/04 03:49:28;;;;;;;5.40;2.10;;;;;;;11.35;60.76;99956.67;79768;1292;3011431;-68
2023/06/04 03:51:56;;;;;;;3.90;2.00;;;;;;;11.32;60.83;99958.08;78556;1292;3026031;-70
2023/06/04 03:54:23;;;;;;;5.30;2.50;;;;;;;11.40;60.59;99955.13;79848;1295;3013116;-67
2023/06/04 03:56:51;;;;;;;4.80;2.50;;;;;;;11.47;60.20;99953.52;79757;1294;3013060;-68
2023/06/04 03:59:18;;;;;;;3.30;1.80;;;;;;;11.51;60.17;99949.64;78518;1293;3069800;-66
2023/06/04 04:01:46;;;;;;;5.50;2.50;;;;;;;11.45;60.08;99953.30;79751;1292;3011556;-66
2023/06/04 04:04:12;;;;;;;4.90;2.50;;;;;;;11.47;60.14;99951.94;79771;1292;3011683;-70
2023/06/04 04:06:41;;;;;;;4.90;2.60;;;;;;;11.49;59.87;99948.14;78545;1294;3054435;-70
2023/06/04 04:09:07;;;;;;;8.10;2.40;;;;;;;11.54;59.55;99950.15;79756;1292;3018862;-68
2023/06/04 04:11:35;;;;;;;5.90;2.30;;;;;;;11.61;59.33;99952.23;79753;1295;3011707;-68
2023/06/04 04:14:03;;;;;;;5.00;2.30;;;;;;;11.64;59.36;99952.21;78504;1294;3028584;-68
2023/06/04 04:16:30;;;;;;;4.50;1.70;;;;;;;11.68;59.20;99960.41;79794;1291;3013393;-68
2023/06/04 04:18:57;;;;;;;3.30;1.60;;;;;;;11.76;59.11;99967.33;79476;1290;3013468;-68
2023/06/04 04:21:25;;;;;;;3.00;1.60;;;;;;;11.81;58.63;99969.32;78324;1292;3052387;-68
2023/06/04 04:23:52;;;;;;;5.10;1.90;;;;;;;11.88;58.45;99968.71;79619;1292;3015371;-68
2023/06/04 04:26:19;;;;;;;8.80;2.30;;;;;;;11.97;58.32;99968.23;79779;1294;3013214;-70
2023/06/04 04:28:49;;;;;;;4.60;1.40;;;;;;;11.93;58.28;99973.72;78458;1294;3069707;-68
2023/06/04 04:31:17;;;;;;;2.20;1.50;;;;;;;12.01;58.33;99977.53;79761;1292;3013590;-70
2023/06/04 04:33:44;;;;;;;2.40;1.70;;;;;;;12.02;57.66;99975.83;79704;1292;3011818;-70
2023/06/04 04:36:13;;;;;;;3.80;1.80;;;;;;;12.08;57.42;99975.53;78562;1295;3053543;-67
2023/06/04 04:38:41;;;;;;;4.00;2.40;;;;;;;12.15;57.47;99980.90;79821;1292;3011818;-69
2023/06/04 04:41:08;;;;;;;2.90;1.90;;;;;;;12.21;57.07;99978.05;79845;1294;3013261;-71
2023/06/04 04:43:40;;;;;;;3.20;1.90;;;;;;;12.31;56.71;99976.45;78693;1292;3068790;-66
2023/06/04 04:46:23;;;;;;;4.00;2.00;;;;;;;12.33;56.58;99986.31;78567;1291;3051157;-71
2023/06/04 04:48:50;;;;;;;3.20;1.60;;;;;;;12.35;56.06;99987.45;79780;1291;3013616;-67
2023/06/04 04:51:17;;;;;;;6.30;2.10;;;;;;;12.43;56.11;99990.98;79799;1290;3011574;-70
2023/06/04 04:53:45;;;;;;;4.60;2.10;;;;;;;12.51;55.58;99992.48;78565;1294;3049957;-64
2023/06/04 04:56:12;;;;;;;4.60;1.70;;;;;;;12.51;55.24;99995.11;79835;1294;3018857;-73
2023/06/04 04:58:44;;;;;;;2.10;1.20;;;;;;;12.55;55.25;99993.42;79186;1295;3011639;-70
2023/06/04 05:01:11;;;;;;;2.20;1.30;;;;;;;12.64;55.03;99990.23;79859;1292;3013038;-69
2023/06/04 05:03:39;;;;;;;2.70;1.40;;;;;;;12.68;54.64;99991.97;79761;1291;3011584;-72
2023/06/04 05:06:07;;;;;;;3.70;1.20;;;;;;;12.80;54.61;99991.42;78522;1294;3049572;-73
2023/06/04 05:08:34;;;;;;;3.40;1.70;;;;;;;12.91;54.60;99996.88;79855;1295;3018200;-68
2023/06/04 05:11:01;;;;;;;3.00;1.70;;;;;;;13.03;54.40;100000.73;79666;1297;3011446;-66
2023/06/04 05:13:30;;;;;;;5.80;1.60;;;;;;;13.04;53.87;100001.17;78475;1297;3052675;-72
2023/06/04 05:16:06;;;;;;;4.80;1.50;;;;;;;13.04;53.98;100004.20;79681;1291;3011897;-70
2023/06/04 05:18:40;;;;;;;1.50;1.00;;;;;;;13.10;52.42;100005.70;78591;1292;3051432;-71
2023/06/04 05:21:12;;;;;;;2.60;1.20;;;;;;;13.16;51.18;100002.72;79231;1291;3011319;-66
2023/06/04 05:23:40;;;;;;;3.30;1.60;;;;;;;13.23;51.55;100001.57;79860;1294;3012292;-69
2023/06/04 05:26:10;;;;;;;3.10;1.20;;;;;;;13.28;51.26;100002.69;78503;1295;3050282;-66
2023/06/04 05:28:38;;;;;;;2.30;0.70;;;;;;;13.34;50.42;100003.04;79774;1292;3012946;-67
2023/06/04 05:31:05;;;;;;;2.50;0.80;;;;;;;13.35;49.52;100008.75;79709;1291;3011656;-70
2023/06/04 05:33:35;;;;;;;2.50;1.00;;;;;;;13.33;49.35;100010.61;78551;1292;3051131;-69
2023/06/04 05:36:04;;;;;;;3.40;1.00;;;;;;;13.35;48.51;100005.94;79742;1295;3011657;-71
2023/06/04 05:38:37;;;;;;;2.50;0.90;;;;;;;13.47;48.63;100012.08;78650;1291;3051235;-66
2023/06/04 05:41:07;;;;;;;7.10;0.70;;;;;;;13.57;48.53;100015.10;79755;1292;3011846;-68
2023/06/04 05:43:36;;;;;;;4.10;0.90;;;;;;;13.70;48.96;100013.75;78526;1292;3049146;-67
2023/06/04 05:46:06;;;;;;;1.70;0.80;;;;;;;13.69;48.02;100012.58;79755;1292;3013562;-69
2023/06/04 05:48:32;;;;;;;2.40;0.50;;;;;;;13.77;47.58;100011.17;79785;1291;3011697;-69
2023/06/04 05:51:00;;;;;;;1.50;0.50;;;;;;;13.84;47.07;100018.86;78545;1295;3053266;-69
2023/06/04 05:53:27;;;;;;;1.80;0.50;;;;;;;13.94;47.41;100014.11;79783;1295;3011596;-68
2023/06/04 05:55:54;;;;;;;3.20;0.60;;;;;;;13.96;47.37;100010.85;79752;1294;3012404;-68
2023/06/04 05:58:22;;;;;;;2.30;0.40;;;;;;;14.06;46.86;100010.52;78523;1295;3027182;-66
2023/06/04 06:00:50;;;;;;;3.20;0.50;;;;;;;14.21;46.63;100009.36;79776;1294;3013375;-71
2023/06/04 06:03:17;;;;;;;3.20;0.70;;;;;;;14.23;45.92;100004.11;79814;1292;3011493;-69
2023/06/04 06:05:45;;;;;;;3.00;0.50;;;;;;;14.33;45.39;99999.61;78664;1294;3052741;-69
2023/06/04 06:08:12;;;;;;;1.10;0.50;;;;;;;14.35;44.77;100004.21;79803;1291;3018796;-73
2023/06/04 06:10:39;;;;;;;1.90;0.50;;;;;;;14.43;45.55;99998.01;79899;1291;3011798;-69
2023/06/04 06:13:07;;;;;;;2.10;0.60;;;;;;;14.48;44.79;99997.30;78552;1295;3027578;-73
2023/06/04 06:15:33;;;;;;;3.70;0.70;;;;;;;14.48;44.58;100006.65;79787;1292;3021269;-71
2023/06/04 06:18:00;;;;;;;1.80;0.70;;;;;;;14.58;44.47;100003.13;79752;1295;3011478;-69
2023/06/04 06:20:29;;;;;;;1.50;0.40;;;;;;;14.63;44.30;100003.39;78550;1294;3052199;-71
2023/06/04 06:22:55;;;;;;;1.30;0.60;;;;;;;14.67;44.11;100005.92;79803;1295;3012842;-70
2023/06/04 06:25:23;;;;;;;2.80;0.80;;;;;;;14.70;43.12;100001.98;79909;1292;3013135;-68
2023/06/04 06:27:57;;;;;;;2.20;1.00;;;;;;;14.76;43.55;99999.66;78677;1292;3049765;-72
2023/06/04 06:30:24;;;;;;;6.40;0.80;;;;;;;14.86;43.58;99997.39;79881;1293;3012692;-68
2023/06/04 06:32:52;;;;;;;4.80;0.80;;;;;;;14.94;43.70;99990.14;79811;1294;3013132;-71
2023/06/04 06:35:23;;;;;;;3.80;0.70;;;;;;;15.02;43.04;99976.85;78659;1294;3052505;-71
2023/06/04 06:37:49;;;;;;;5.00;0.80;;;;;;;15.06;42.18;99974.23;79944;1291;3013499;-67
2023/06/04 06:40:16;;;;;;;2.60;1.00;;;;;;;15.11;42.05;99980.05;79872;1291;3012114;-64
2023/06/04 06:42:50;;;;;;;3.60;0.60;;;;;;;15.16;42.33;99983.62;78595;1290;3049652;-69
2023/06/04 06:45:20;;;;;;;2.00;0.90;;;;;;;15.21;41.74;99980.77;79715;1292;3011755;-68
2023/06/04 06:47:48;;;;;;;2.30;0.80;;;;;;;15.20;41.37;99977.50;78588;1292;3050742;-69
2023/06/04 06:50:14;;;;;;;2.10;0.90;;;;;;;15.16;41.27;99981.02;79781;1294;3013112;-65
2023/06/04 06:52:41;;;;;;;2.20;0.90;;;;;;;15.23;41.47;99983.63;79689;1290;3011679;-70
2023/06/04 06:56:50;;;;;;;1.30;0.50;;;;;;;15.41;41.07;99985.55;80185;1303;3013303;-66
2023/06/04 06:59:17;;;;;;;1.60;0.60;;;;;;;15.59;40.32;99983.73;79179;1304;3019314;-66
2023/06/04 07:01:44;;;;;;;4.70;0.80;;;;;;;15.67;39.55;99992.48;81872;1298;3010926;-67
2023/06/04 07:04:12;;;;;;;2.00;0.60;;;;;;;15.73;40.08;99995.59;80651;1299;3026464;-67
2023/06/04 07:06:38;;;;;;;4.00;0.60;;;;;;;15.89;39.72;99998.11;81884;1298;3018325;-65
2023/06/04 07:09:06;;;;;;;2.70;0.80;;;;;;;15.88;39.41;99997.16;80008;1298;3036550;-65
2023/06/04 07:11:34;;;;;;;2.20;0.70;;;;;;;15.89;39.22;99998.88;80721;1296;3026940;-65
2023/06/04 07:14:02;;;;;;;2.60;0.90;;;;;;;15.94;39.46;100001.63;81991;1296;3011392;-65
2023/06/04 07:16:29;;;;;;;5.60;1.10;;;;;;;16.07;38.18;100000.89;81934;1296;3011472;-65
2023/06/04 07:18:57;;;;;;;4.50;0.60;;;;;;;16.06;38.14;99991.41;80702;1297;3052318;-65
2023/06/04 07:21:23;;;;;;;2.20;0.40;;;;;;;16.17;37.81;100001.34;81959;1300;3012766;-65
2023/06/04 07:23:50;;;;;;;2.10;0.70;;;;;;;16.23;37.05;100003.34;81928;1296;3011167;-65
2023/06/04 07:26:19;;;;;;;0.90;0.50;;;;;;;16.31;37.08;99997.62;80664;1296;3048947;-65
2023/06/04 07:28:45;;;;;;;1.50;0.90;;;;;;;16.42;37.04;99995.88;81938;1298;3012410;-65
2023/06/04 07:31:16;;;;;;;3.70;0.70;;;;;;;16.51;37.13;99994.34;81916;1298;3011216;-66
2023/06/04 07:33:44;;;;;;;1.70;0.60;;;;;;;16.69;36.94;99994.19;80635;1297;3052648;-65
2023/06/04 07:36:12;;;;;;;1.90;0.40;;;;;;;16.78;36.41;99988.76;81921;1297;3013175;-65
2023/06/04 07:38:39;;;;;;;2.40;0.50;;;;;;;16.94;36.48;99990.56;81897;1297;3011338;-65
2023/06/04 07:41:06;;;;;;;1.10;0.50;;;;;;;17.00;35.82;99988.81;80619;1297;3048441;-65
2023/06/04 07:43:34;;;;;;;6.90;0.70;;;;;;;17.00;35.29;99988.27;81921;1297;3018009;-65
2023/06/04 07:46:02;;;;;;;1.20;0.60;;;;;;;17.09;35.13;99993.75;81903;1300;3011065;-65
2023/06/04 07:48:30;;;;;;;0.60;0.40;;;;;;;17.12;34.61;99989.59;80715;1298;3052839;-66
2023/06/04 07:51:00;;;;;;;3.00;0.40;;;;;;;17.20;33.89;99997.88;82002;1295;3018513;-65
2023/06/04 07:53:29;;;;;;;1.40;0.50;;;;;;;17.29;33.75;99993.73;81432;1296;3011095;-65
2023/06/04 07:55:56;;;;;;;1.00;0.50;;;;;;;17.27;33.34;100002.58;81968;1296;3013213;-65
2023/06/04 07:58:23;;;;;;;1.20;0.50;;;;;;;17.45;33.87;100002.40;81934;1296;3011376;-65
2023/06/04 08:00:51;;;;;;;2.10;0.60;;;;;;;17.57;34.15;100001.30;80719;1296;3025843;-65
2023/06/04 08:03:18;;;;;;;1.20;0.60;;;;;;;17.70;34.01;99998.39;81992;1297;3013123;-65
2023/06/04 08:05:45;;;;;;;1.10;0.50;;;;;;;17.70;33.85;99995.40;81960;1296;3011298;-65
2023/06/04 08:08:12;;;;;;;1.50;0.70;;;;;;;17.85;33.60;99997.15;80635;1297;3049990;-66
2023/06/04 08:10:39;;;;;;;3.20;0.80;;;;;;;17.89;32.65;99997.02;81980;1296;3019589;-65
2023/06/04 08:13:06;;;;;;;2.80;0.60;;;;;;;17.91;32.93;99996.70;81931;1296;3010995;-65
2023/06/04 08:15:34;;;;;;;1.10;0.60;;;;;;;17.99;33.38;99996.43;80685;1297;3026565;-65
2023/06/04 08:18:01;;;;;;;2.00;0.60;;;;;;;18.18;33.21;99998.75;81943;1297;3012652;-65
2023/06/04 08:20:27;;;;;;;1.70;0.60;;;;;;;18.27;33.34;100001.41;81904;1297;3011409;-65
2023/06/04 08:22:55;;;;;;;1.60;0.50;;;;;;;18.26;33.30;100003.95;80666;1297;3026179;-66
2023/06/04 08:25:21;;;;;;;2.80;0.60;;;;;;;18.28;32.34;99995.28;81958;1297;3012642;-65
2023/06/04 08:27:48;;;;;;;0.70;0.40;;;;;;;18.42;31.92;99992.63;81918;1297;3011461;-65
2023/06/04 08:30:16;;;;;;;0.90;0.40;;;;;;;18.65;32.14;99997.66;80689;1297;3026431;-66
2023/06/04 08:32:42;;;;;;;1.40;0.40;;;;;;;18.78;31.51;99999.67;81908;1297;3018356;-65
2023/06/04 08:35:10;;;;;;;3.60;0.60;;;;;;;18.91;31.98;99999.52;81887;1297;3011138;-65
2023/06/04 08:37:39;;;;;;;1.90;0.80;;;;;;;18.78;31.88;99997.58;80667;1297;3050622;-65
2023/06/04 08:40:08;;;;;;;1.00;0.50;;;;;;;18.97;31.96;99997.70;81932;1297;3012790;-65
2023/06/04 08:42:44;;;;;;;3.00;0.40;;;;;;;19.08;30.94;100001.00;80636;1297;3053227;-65
2023/06/04 08:45:13;;;;;;;3.80;0.40;;;;;;;19.09;30.67;99999.13;80658;1296;3050609;-66
2023/06/04 08:47:44;;;;;;;1.40;0.60;;;;;;;19.18;31.20;99990.77;81949;1296;3011442;-65
2023/06/04 08:50:12;;;;;;;1.90;0.70;;;;;;;19.17;30.94;99990.67;80702;1297;3053714;-65
2023/06/04 08:52:40;;;;;;;2.80;0.60;;;;;;;19.19;30.83;99988.20;81938;1296;3013135;-65
2023/06/04 08:55:08;;;;;;;0.60;0.30;;;;;;;19.26;30.66;99991.30;81942;1297;3011269;-65
2023/06/04 08:57:39;;;;;;;0.90;0.40;;;;;;;19.38;30.43;99990.43;80712;1297;3049204;-65
2023/06/04 09:00:07;;;;;;;2.50;0.40;;;;;;;19.41;29.88;99990.63;81935;1297;3011160;-65
2023/06/04 09:02:37;;;;;;;0.90;0.30;;;;;;;19.43;29.92;99995.33;80647;1297;3025910;-65
2023/06/04 09:05:04;;;;;;;1.10;0.30;;;;;;;19.55;29.16;99993.71;81899;1297;3011446;-64
2023/06/04 09:07:35;;;;;;;1.20;0.50;;;;;;;19.53;29.07;99994.24;81419;1301;3011096;-66
2023/06/04 09:10:02;;;;;;;0.60;0.40;;;;;;;19.61;29.83;99994.94;81868;1302;3013115;-66
2023/06/04 09:12:29;;;;;;;1.60;0.50;;;;;;;19.77;30.06;99994.56;81843;1297;3011275;-65
2023/06/04 09:14:57;;;;;;;2.60;0.60;;;;;;;19.80;29.50;99993.75;80546;1297;3047145;-65
2023/06/04 09:17:24;;;;;;;6.10;0.60;;;;;;;19.91;29.75;99992.64;81926;1297;3018004;-65
2023/06/04 09:19:51;;;;;;;1.30;0.50;;;;;;;20.09;28.98;99987.58;81943;1297;3011157;-66
2023/06/04 09:22:19;;;;;;;1.60;0.60;;;;;;;20.00;29.09;99985.02;80690;1297;3027552;-66
2023/06/04 09:24:47;;;;;;;1.50;0.50;;;;;;;20.02;28.79;99978.41;81984;1297;3011175;-66
2023/06/04 09:27:15;;;;;;;1.90;0.50;;;;;;;20.04;28.61;99984.53;81976;1296;3011292;-66
2023/06/04 09:29:51;;;;;;;2.80;1.10;;;;;;;19.87;28.31;99984.95;80700;1296;3048475;-66
2023/06/04 09:32:26;;;;;;;1.50;0.50;;;;;;;20.06;28.59;99979.34;80679;1298;3052192;-66
2023/06/04 09:34:57;;;;;;;1.00;0.50;;;;;;;20.20;28.03;99973.96;80672;1297;3048268;-65
2023/06/04 09:37:24;;;;;;;0.90;0.40;;;;;;;20.38;28.05;99968.58;81951;1294;3013175;-66
2023/06/04 09:39:56;;;;;;;1.20;0.50;;;;;;;20.56;28.51;99960.42;82106;1294;3011256;-65
2023/06/04 09:42:24;;;;;;;1.20;0.50;;;;;;;20.80;27.91;99956.09;80812;1294;3051093;-65
2023/06/04 09:44:51;;;;;;;3.20;0.70;;;;;;;20.76;27.77;99953.95;82139;1294;3012391;-65
2023/06/04 09:47:17;;;;;;;4.00;0.80;;;;;;;20.59;27.63;99959.60;82051;1294;3011366;-65
2023/06/04 09:49:47;;;;;;;6.60;0.70;;;;;;;20.50;27.61;99952.46;80810;1294;3026251;-65
2023/06/04 09:52:15;;;;;;;1.50;0.50;;;;;;;20.65;27.48;99947.69;82110;1294;3010911;-65
2023/06/04 09:54:43;;;;;;;0.90;0.50;;;;;;;20.74;27.13;99952.52;81595;1294;3010959;-65
2023/06/04 09:57:17;;;;;;;1.30;0.30;;;;;;;20.75;26.60;99955.42;82108;1294;3012345;-65
2023/06/04 09:59:46;;;;;;;1.70;0.70;;;;;;;20.94;26.69;99953.50;80869;1294;3056064;-67
2023/06/04 10:02:13;;;;;;;1.50;0.70;;;;;;;21.11;26.62;99954.13;82120;1294;3012700;-65
2023/06/04 10:04:42;;;;;;;2.30;0.50;;;;;;;21.19;26.70;99954.13;82096;1293;3011212;-65
2023/06/04 10:07:12;;;;;;;0.90;0.40;;;;;;;21.13;26.23;99953.05;80874;1295;3052728;-66
2023/06/04 10:09:45;;;;;;;3.90;0.60;;;;;;;20.96;25.82;99954.17;82081;1294;3012642;-66
2023/06/04 10:12:16;;;;;;;3.70;0.60;;;;;;;21.11;26.24;99950.60;80811;1294;3050429;-66
2023/06/04 10:14:48;;;;;;;2.40;0.50;;;;;;;21.09;26.27;99950.43;82113;1294;3011367;-65
2023/06/04 10:17:17;;;;;;;1.90;0.50;;;;;;;21.11;26.03;99948.23;80761;1294;3049023;-66
2023/06/04 10:19:44;;;;;;;3.60;0.50;;;;;;;20.98;26.04;99951.12;82067;1294;3012569;-65
2023/06/04 10:22:13;;;;;;;1.20;0.50;;;;;;;20.90;26.09;99946.89;82088;1294;3011342;-66
2023/06/04 10:24:41;;;;;;;1.30;0.40;;;;;;;21.17;26.24;99940.01;80823;1294;3052179;-64
2023/06/04 10:27:10;;;;;;;1.90;0.70;;;;;;;21.35;26.09;99941.33;81926;1297;3018197;-64
2023/06/04 10:29:37;;;;;;;1.50;1.00;;;;;;;21.45;26.44;99938.56;81958;1295;3011184;-65
2023/06/04 10:32:05;;;;;;;1.60;0.80;;;;;;;21.51;26.35;99937.97;80820;1294;3048734;-65
2023/06/04 10:34:32;;;;;;;2.30;1.20;;;;;;;21.63;25.70;99931.83;82017;1294;3018104;-63
2023/06/04 10:36:59;;;;;;;0.80;0.50;;;;;;;21.71;25.56;99932.98;82072;1294;3011273;-66
2023/06/04 10:39:28;;;;;;;2.40;0.60;;;;;;;21.69;25.29;99931.59;80803;1294;3025865;-64
2023/06/04 10:42:05;;;;;;;1.90;0.60;;;;;;;21.94;25.47;99932.83;82122;1294;3012283;-65
2023/06/04 10:44:48;;;;;;;1.30;0.70;;;;;;;22.03;24.77;99926.04;80799;1294;3056185;-65
2023/06/04 10:47:22;;;;;;;2.00;0.70;;;;;;;22.19;24.74;99929.55;80745;1294;3048650;-63
2023/06/04 10:49:53;;;;;;;0.60;0.50;;;;;;;22.27;24.98;99929.11;81994;1294;3011046;-64
2023/06/04 10:52:21;;;;;;;0.70;0.40;;;;;;;21.82;24.82;99922.73;80774;1295;3049595;-63
2023/06/04 10:54:48;;;;;;;0.60;0.40;;;;;;;21.97;24.62;99931.27;82036;1295;3013044;-63
2023/06/04 10:57:18;;;;;;;2.60;0.50;;;;;;;21.79;24.25;99924.65;81960;1295;3011369;-64
2023/06/04 10:59:58;;;;;;;1.00;0.50;;;;;;;21.72;24.63;99925.23;80745;1294;3048946;-63
2023/06/04 11:02:26;;;;;;;1.60;0.50;;;;;;;21.63;24.54;99929.13;80763;1294;3055849;-63
2023/06/04 11:05:01;;;;;;;0.80;0.50;;;;;;;21.97;25.10;99925.76;82043;1294;3012677;-64
2023/06/04 11:07:29;;;;;;;2.10;0.60;;;;;;;22.17;24.55;99934.80;80737;1295;3048766;-64
2023/06/04 11:09:55;;;;;;;2.80;0.50;;;;;;;22.44;24.07;99934.42;82035;1295;3013140;-64
2023/06/04 11:12:22;;;;;;;1.30;0.80;;;;;;;22.43;23.73;99925.59;82021;1297;3011593;-62
2023/06/04 11:14:56;;;;;;;1.20;0.70;;;;;;;22.50;23.64;99919.94;80749;1294;3025873;-65
2023/06/04 11:17:25;;;;;;;2.30;0.60;;;;;;;22.73;23.87;99921.95;81487;1294;3011372;-65
2023/06/04 11:19:55;;;;;;;1.00;0.50;;;;;;;23.04;23.55;99923.46;81984;1294;3018148;-64
2023/06/04 11:22:23;;;;;;;1.10;0.40;;;;;;;23.30;23.25;99925.06;81571;1294;3011285;-64
2023/06/04 11:24:56;;;;;;;2.90;0.80;;;;;;;23.39;23.02;99921.35;82002;1295;3012421;-63